Time;durP1;ratioP1;P1;durP2;ratioP2;P2;SDS_P1;SDS_P2;PMS_P1;PMS_P2;Temp;Humidity;BMP_temperature;BMP_pressure;BME280_temperature;BME280_humidity;BME280_pressure;Samples;Min_cycle;Max_cycle;Signal;HPM_P1;HPM_P2
2023/10/30 00:01:42;;;;;;;10.55;1.77;;;14.40;99.90;;;;;;4984190;28;20179;-67
2023/10/30 00:04:07;;;;;;;4.22;1.63;;;14.30;99.90;;;;;;4968921;28;20288;-67
2023/10/30 00:06:37;;;;;;;3.50;0.93;;;14.40;99.90;;;;;;4966695;28;20239;-67
2023/10/30 00:09:06;;;;;;;3.25;1.00;;;14.40;99.90;;;;;;4970224;28;20187;-66
2023/10/30 00:11:34;;;;;;;4.32;1.20;;;14.40;99.90;;;;;;4967994;28;20292;-68
2023/10/30 00:14:00;;;;;;;3.78;1.10;;;14.40;99.90;;;;;;4969769;28;20202;-68
2023/10/30 00:16:27;;;;;;;4.32;1.00;;;14.50;99.90;;;;;;4966473;28;20177;-67
2023/10/30 00:18:54;;;;;;;2.90;0.90;;;14.40;99.90;;;;;;4970462;28;20215;-68
2023/10/30 00:21:22;;;;;;;2.47;0.90;;;14.50;99.90;;;;;;4969695;28;20172;-68
2023/10/30 00:23:48;;;;;;;3.13;1.02;;;14.50;99.90;;;;;;4974484;28;20191;-67
2023/10/30 00:26:13;;;;;;;2.85;0.95;;;14.50;99.90;;;;;;4970268;28;20200;-68
2023/10/30 00:28:39;;;;;;;2.15;0.80;;;14.60;99.90;;;;;;4969233;28;20184;-68
2023/10/30 00:31:07;;;;;;;2.83;0.90;;;14.60;99.90;;;;;;4966464;28;20176;-68
2023/10/30 00:33:32;;;;;;;3.83;1.10;;;14.60;99.90;;;;;;4967801;28;20203;-67
2023/10/30 00:35:58;;;;;;;5.22;0.93;;;14.60;99.90;;;;;;4968338;28;20251;-67
2023/10/30 00:38:24;;;;;;;5.20;1.35;;;14.60;99.90;;;;;;4969531;28;20543;-68
2023/10/30 00:40:49;;;;;;;2.25;0.90;;;14.60;99.90;;;;;;4966211;28;20191;-68
2023/10/30 00:43:15;;;;;;;6.78;1.02;;;14.60;99.90;;;;;;4982612;28;20188;-68
2023/10/30 00:45:42;;;;;;;5.20;1.35;;;14.60;99.90;;;;;;4990390;28;20202;-67
2023/10/30 00:48:07;;;;;;;3.47;1.15;;;14.60;99.90;;;;;;4982904;28;20184;-68
2023/10/30 00:50:33;;;;;;;2.67;1.02;;;14.70;99.90;;;;;;4986600;28;20198;-68
2023/10/30 00:53:00;;;;;;;3.10;1.20;;;14.70;99.90;;;;;;4988457;28;20200;-67
2023/10/30 00:55:30;;;;;;;2.55;0.77;;;14.70;99.90;;;;;;4972654;28;20191;-67
2023/10/30 00:57:56;;;;;;;5.18;1.17;;;14.70;99.90;;;;;;4972376;28;20280;-67
2023/10/30 01:00:21;;;;;;;3.47;1.25;;;14.70;99.90;;;;;;4974840;28;20258;-68
2023/10/30 01:02:47;;;;;;;2.97;0.70;;;14.80;99.90;;;;;;4975771;28;20266;-67
2023/10/30 01:05:13;;;;;;;4.72;1.05;;;14.70;99.90;;;;;;4976775;28;20243;-67
2023/10/30 01:07:41;;;;;;;3.20;1.02;;;14.70;99.90;;;;;;4980376;28;20180;-66
2023/10/30 01:10:09;;;;;;;3.70;1.30;;;14.70;99.90;;;;;;4980592;28;20241;-66
2023/10/30 01:12:37;;;;;;;4.13;1.13;;;14.70;99.90;;;;;;4983779;28;20250;-67
2023/10/30 01:15:05;;;;;;;5.13;1.20;;;14.70;99.90;;;;;;4983742;28;20199;-67
2023/10/30 01:17:33;;;;;;;3.25;1.17;;;14.70;99.90;;;;;;4979104;28;20175;-67
2023/10/30 01:20:02;;;;;;;3.40;1.20;;;14.70;99.90;;;;;;4979341;28;20215;-67
2023/10/30 01:22:30;;;;;;;4.45;1.13;;;14.70;99.90;;;;;;4971910;28;20183;-67
2023/10/30 01:24:56;;;;;;;3.50;1.05;;;14.70;99.90;;;;;;4983283;28;20179;-67
2023/10/30 01:27:22;;;;;;;5.57;1.30;;;14.70;99.90;;;;;;4979505;28;20195;-66
2023/10/30 01:29:50;;;;;;;3.88;1.00;;;14.70;99.90;;;;;;4971636;28;20192;-66
2023/10/30 01:32:15;;;;;;;4.78;1.25;;;14.80;99.90;;;;;;4965316;28;20331;-66
2023/10/30 01:34:41;;;;;;;4.18;1.20;;;14.80;99.90;;;;;;4963750;28;20294;-66
2023/10/30 01:37:06;;;;;;;4.72;1.23;;;14.70;99.90;;;;;;4974763;28;20195;-66
2023/10/30 01:39:32;;;;;;;4.75;1.00;;;14.80;99.90;;;;;;4972345;28;20292;-67
2023/10/30 01:41:58;;;;;;;3.90;0.95;;;14.80;99.90;;;;;;4974370;28;20203;-66
2023/10/30 01:44:24;;;;;;;2.35;1.27;;;14.80;99.90;;;;;;4974669;28;20176;-66
2023/10/30 01:46:50;;;;;;;3.20;0.90;;;14.80;99.90;;;;;;4975406;28;20180;-65
2023/10/30 01:49:15;;;;;;;5.45;1.67;;;14.80;99.90;;;;;;4975133;28;20198;-66
2023/10/30 01:51:45;;;;;;;5.13;1.55;;;14.80;99.90;;;;;;4974307;28;20258;-66
2023/10/30 01:54:11;;;;;;;4.25;1.35;;;14.70;99.90;;;;;;4985383;28;20205;-67
2023/10/30 01:56:39;;;;;;;5.78;1.10;;;14.80;99.90;;;;;;4978256;28;20180;-66
2023/10/30 01:59:05;;;;;;;4.50;1.20;;;14.80;99.90;;;;;;4970736;28;20177;-66
2023/10/30 02:01:32;;;;;;;4.45;1.20;;;14.80;99.90;;;;;;4975477;28;20263;-67
2023/10/30 02:03:58;;;;;;;3.28;1.23;;;14.80;99.90;;;;;;4975030;28;20266;-67
2023/10/30 02:06:23;;;;;;;3.83;1.05;;;14.80;99.90;;;;;;4973254;28;20180;-67
2023/10/30 02:08:50;;;;;;;4.55;1.27;;;14.80;99.90;;;;;;4973469;28;20272;-67
2023/10/30 02:11:15;;;;;;;2.42;1.15;;;14.80;99.90;;;;;;4974739;28;20187;-67
2023/10/30 02:13:53;;;;;;;3.28;0.98;;;14.80;99.90;;;;;;4981675;28;20215;-65
2023/10/30 02:16:19;;;;;;;4.80;1.13;;;14.80;99.90;;;;;;4970981;28;20192;-67
2023/10/30 02:18:45;;;;;;;3.80;0.93;;;14.80;99.90;;;;;;4975037;28;20181;-66
2023/10/30 02:21:14;;;;;;;4.22;0.90;;;14.80;99.90;;;;;;4970704;28;20309;-66
2023/10/30 02:23:41;;;;;;;4.00;1.10;;;14.80;99.90;;;;;;4972537;28;20503;-67
2023/10/30 02:26:07;;;;;;;2.60;0.93;;;14.80;99.90;;;;;;4969864;28;20275;-67
2023/10/30 02:28:33;;;;;;;3.78;0.95;;;14.80;99.90;;;;;;4973692;28;20326;-67
2023/10/30 02:31:01;;;;;;;3.53;1.20;;;14.80;99.90;;;;;;4978045;28;21455;-66
2023/10/30 02:33:26;;;;;;;10.48;1.25;;;14.70;99.90;;;;;;4970673;28;20341;-66
2023/10/30 02:35:54;;;;;;;4.13;1.10;;;14.80;99.90;;;;;;4970225;28;20176;-68
2023/10/30 02:38:20;;;;;;;3.80;1.20;;;14.80;99.90;;;;;;4975113;28;20280;-67
2023/10/30 02:40:50;;;;;;;5.43;0.95;;;14.80;99.90;;;;;;4975859;28;20266;-67
2023/10/30 02:43:18;;;;;;;2.25;1.02;;;14.80;99.90;;;;;;4972090;28;20210;-67
2023/10/30 02:45:44;;;;;;;2.45;1.00;;;14.80;99.90;;;;;;4977759;28;20180;-67
2023/10/30 02:48:11;;;;;;;3.72;0.95;;;14.80;99.90;;;;;;4988707;28;20176;-67
2023/10/30 02:50:37;;;;;;;3.05;1.00;;;14.80;99.90;;;;;;4987928;28;20271;-66
2023/10/30 02:53:06;;;;;;;3.08;0.95;;;14.80;99.90;;;;;;4975846;28;20181;-67
2023/10/30 02:55:34;;;;;;;4.57;0.95;;;14.80;99.90;;;;;;4985876;28;20179;-68
2023/10/30 02:58:04;;;;;;;4.10;0.90;;;14.80;99.90;;;;;;4977149;28;20211;-66
2023/10/30 03:00:30;;;;;;;3.17;1.05;;;14.70;99.90;;;;;;4988472;28;20192;-66
2023/10/30 03:02:55;;;;;;;2.90;0.90;;;14.70;99.90;;;;;;4983043;28;20199;-66
2023/10/30 03:05:21;;;;;;;3.70;1.00;;;14.70;99.90;;;;;;4979732;28;20208;-67
2023/10/30 03:07:49;;;;;;;2.70;0.90;;;14.80;99.90;;;;;;4974152;28;20184;-67
2023/10/30 03:10:14;;;;;;;3.05;1.10;;;14.70;99.90;;;;;;4985960;28;20179;-67
2023/10/30 03:12:40;;;;;;;2.90;1.13;;;14.70;99.90;;;;;;4975428;28;20251;-67
2023/10/30 03:15:06;;;;;;;4.50;1.00;;;14.70;99.90;;;;;;4976373;28;20212;-66
2023/10/30 03:17:34;;;;;;;3.67;0.95;;;14.70;99.90;;;;;;4973782;28;20196;-67
2023/10/30 03:20:00;;;;;;;4.07;1.20;;;14.70;99.90;;;;;;4973069;28;20187;-67
2023/10/30 03:22:25;;;;;;;4.90;1.33;;;14.70;99.90;;;;;;4977992;28;20192;-66
2023/10/30 03:24:51;;;;;;;3.75;1.10;;;14.70;99.90;;;;;;4981991;28;20179;-67
2023/10/30 03:27:16;;;;;;;4.25;1.20;;;14.70;99.90;;;;;;4976500;28;20244;-66
2023/10/30 03:29:42;;;;;;;3.97;1.20;;;14.70;99.90;;;;;;4967694;28;20191;-68
2023/10/30 03:32:08;;;;;;;5.15;1.25;;;14.70;99.90;;;;;;4974452;28;20184;-68
2023/10/30 03:34:35;;;;;;;3.38;1.20;;;14.70;99.90;;;;;;4972025;28;20282;-65
2023/10/30 03:37:02;;;;;;;2.83;1.10;;;14.70;99.90;;;;;;5028834;22;20237;-66
2023/10/30 03:39:35;;;;;;;2.58;1.08;;;14.70;99.90;;;;;;4956726;28;20194;-66
2023/10/30 03:42:01;;;;;;;2.38;0.90;;;14.70;99.90;;;;;;4953328;28;20209;-68
2023/10/30 03:44:27;;;;;;;3.70;1.20;;;14.70;99.90;;;;;;4969739;28;20195;-67
2023/10/30 03:46:53;;;;;;;2.83;0.90;;;14.70;99.90;;;;;;4955861;28;20211;-67
2023/10/30 03:49:23;;;;;;;2.50;0.82;;;14.80;99.90;;;;;;4956465;28;20204;-66
2023/10/30 03:51:48;;;;;;;4.72;1.00;;;14.70;99.90;;;;;;4945604;28;20203;-68
2023/10/30 03:54:14;;;;;;;4.88;1.33;;;14.70;99.90;;;;;;4964858;28;20280;-67
2023/10/30 03:56:39;;;;;;;2.25;1.00;;;14.70;99.90;;;;;;4955557;28;20195;-68
2023/10/30 03:59:05;;;;;;;2.95;0.95;;;14.70;99.90;;;;;;4953926;28;20182;-67
2023/10/30 04:01:35;;;;;;;3.17;0.80;;;14.70;99.90;;;;;;4970276;28;20260;-68
2023/10/30 04:04:02;;;;;;;2.95;0.98;;;14.70;99.90;;;;;;4963162;28;20193;-67
2023/10/30 04:06:28;;;;;;;5.88;1.20;;;14.60;99.90;;;;;;4950204;28;20212;-67
2023/10/30 04:08:54;;;;;;;6.63;1.15;;;14.60;99.90;;;;;;4966995;28;20208;-68
2023/10/30 04:11:19;;;;;;;4.00;1.02;;;14.60;99.90;;;;;;4968785;28;20192;-67
2023/10/30 04:13:45;;;;;;;2.28;0.75;;;14.60;99.90;;;;;;4952697;28;20216;-67
2023/10/30 04:16:13;;;;;;;3.58;1.20;;;14.60;99.90;;;;;;4952821;28;20177;-68
2023/10/30 04:18:39;;;;;;;2.08;0.90;;;14.60;99.90;;;;;;4961736;28;20204;-68
2023/10/30 04:21:08;;;;;;;2.17;0.90;;;14.60;99.90;;;;;;4967523;28;20239;-67
2023/10/30 04:23:33;;;;;;;2.67;1.08;;;14.60;99.90;;;;;;4949868;28;20185;-67
2023/10/30 04:25:59;;;;;;;3.17;0.93;;;14.60;99.90;;;;;;4954239;28;20173;-67
2023/10/30 04:28:25;;;;;;;1.95;1.02;;;14.60;99.90;;;;;;4958264;28;20208;-67
2023/10/30 04:30:50;;;;;;;2.25;0.80;;;14.60;99.90;;;;;;4968039;28;20181;-68
2023/10/30 04:33:17;;;;;;;4.07;0.88;;;14.50;99.90;;;;;;4954060;28;20181;-68
2023/10/30 04:35:43;;;;;;;2.13;0.90;;;14.50;99.90;;;;;;4944683;29;20195;-67
2023/10/30 04:38:08;;;;;;;2.97;0.98;;;14.50;99.90;;;;;;4947157;28;20276;-67
2023/10/30 04:40:34;;;;;;;3.20;1.10;;;14.50;99.90;;;;;;4981168;28;20196;-66
2023/10/30 04:43:02;;;;;;;2.42;1.08;;;14.50;99.90;;;;;;4963141;28;20200;-67
2023/10/30 04:45:28;;;;;;;2.80;1.10;;;14.40;99.90;;;;;;4968537;28;20180;-67
2023/10/30 04:47:53;;;;;;;3.95;0.90;;;14.40;99.90;;;;;;4972756;28;20235;-75
2023/10/30 04:50:21;;;;;;;4.53;1.05;;;14.40;99.90;;;;;;4956887;28;20184;-75
2023/10/30 04:52:47;;;;;;;3.47;1.30;;;14.40;99.90;;;;;;4953574;29;20181;-75
2023/10/30 04:55:13;;;;;;;3.65;0.90;;;14.40;99.90;;;;;;4953849;28;20201;-75
2023/10/30 04:57:38;;;;;;;3.30;0.98;;;14.30;99.90;;;;;;4964908;28;20184;-74
2023/10/30 05:00:05;;;;;;;3.85;0.90;;;14.30;99.90;;;;;;4961806;28;20180;-75
2023/10/30 05:02:31;;;;;;;2.47;1.00;;;14.30;99.90;;;;;;4972896;28;20196;-72
2023/10/30 05:04:56;;;;;;;3.03;0.90;;;14.30;99.90;;;;;;4966215;28;20177;-74
2023/10/30 05:07:22;;;;;;;2.47;0.90;;;14.20;99.90;;;;;;4955971;29;20211;-78
2023/10/30 05:09:50;;;;;;;5.30;1.50;;;14.20;99.90;;;;;;4955917;29;20184;-74
2023/10/30 05:12:16;;;;;;;2.95;1.83;;;14.20;99.90;;;;;;4977373;28;20244;-74
2023/10/30 05:14:42;;;;;;;3.80;1.60;;;14.20;99.90;;;;;;4972456;28;20212;-74
2023/10/30 05:17:07;;;;;;;2.78;1.20;;;14.20;99.90;;;;;;4970262;28;20235;-74
2023/10/30 05:19:35;;;;;;;4.95;1.02;;;14.20;99.90;;;;;;4938522;29;20192;-73
2023/10/30 05:22:01;;;;;;;3.08;1.20;;;14.20;99.90;;;;;;4967098;28;20181;-72
2023/10/30 05:24:27;;;;;;;5.57;1.15;;;14.20;99.90;;;;;;4956505;28;20187;-74
2023/10/30 05:26:55;;;;;;;3.05;1.20;;;14.20;99.90;;;;;;4952166;28;20300;-75
2023/10/30 05:29:23;;;;;;;2.45;1.00;;;14.10;99.90;;;;;;4953704;28;20178;-75
2023/10/30 05:31:51;;;;;;;4.05;1.67;;;14.10;99.90;;;;;;4957257;28;20192;-75
2023/10/30 05:34:19;;;;;;;2.97;1.40;;;14.10;99.90;;;;;;4950826;28;20212;-74
2023/10/30 05:36:49;;;;;;;1.98;1.08;;;14.10;99.90;;;;;;4945077;28;20499;-75
2023/10/30 05:39:17;;;;;;;2.33;1.08;;;14.10;99.90;;;;;;4967159;28;20173;-74
2023/10/30 05:41:46;;;;;;;4.47;1.17;;;14.10;99.90;;;;;;4954295;28;20346;-75
2023/10/30 05:44:19;;;;;;;3.17;1.00;;;14.10;99.90;;;;;;4955997;28;20208;-75
2023/10/30 05:46:48;;;;;;;1.98;1.10;;;14.10;99.90;;;;;;4963368;28;20185;-75
2023/10/30 05:49:16;;;;;;;2.55;1.30;;;14.00;99.90;;;;;;4972600;28;20185;-75
2023/10/30 05:51:44;;;;;;;3.65;1.20;;;14.00;99.90;;;;;;4953630;28;20247;-76
2023/10/30 05:54:12;;;;;;;2.38;1.10;;;14.00;99.90;;;;;;4952739;28;20217;-77
2023/10/30 05:56:37;;;;;;;2.67;1.10;;;14.00;99.90;;;;;;4976813;28;20177;-77
2023/10/30 05:59:08;;;;;;;1.70;1.00;;;14.00;99.90;;;;;;4975704;28;20211;-75
2023/10/30 06:01:35;;;;;;;2.33;1.00;;;14.00;99.90;;;;;;4961594;28;20196;-77
2023/10/30 06:04:02;;;;;;;2.13;1.10;;;14.00;99.90;;;;;;4952658;29;20185;-76
2023/10/30 06:06:30;;;;;;;2.25;1.00;;;14.00;99.90;;;;;;4949413;29;20186;-77
2023/10/30 06:08:56;;;;;;;3.63;1.20;;;14.00;99.90;;;;;;4950306;28;20200;-74
2023/10/30 06:11:22;;;;;;;3.13;1.20;;;14.00;99.90;;;;;;4962401;28;20180;-77
2023/10/30 06:13:47;;;;;;;2.05;1.20;;;14.00;99.90;;;;;;4952999;28;20211;-77
2023/10/30 06:16:15;;;;;;;3.72;1.17;;;14.00;99.90;;;;;;4954389;28;20184;-72
2023/10/30 06:18:43;;;;;;;2.17;1.02;;;14.00;99.90;;;;;;4960192;28;20181;-76
2023/10/30 06:21:13;;;;;;;5.03;1.73;;;14.00;99.90;;;;;;4966673;28;20426;-75
2023/10/30 06:23:39;;;;;;;5.72;1.40;;;14.00;99.90;;;;;;4964959;28;20189;-76
2023/10/30 06:26:12;;;;;;;2.80;1.15;;;14.00;99.90;;;;;;4953516;28;20191;-75
2023/10/30 06:28:38;;;;;;;2.05;1.30;;;13.90;99.90;;;;;;4962349;28;20181;-75
2023/10/30 06:31:12;;;;;;;2.75;1.48;;;13.90;99.90;;;;;;4975304;28;20280;-75
2023/10/30 06:33:40;;;;;;;3.38;1.27;;;13.90;99.90;;;;;;4957629;28;20291;-76
2023/10/30 06:36:06;;;;;;;2.92;1.45;;;13.90;99.90;;;;;;4957851;28;20266;-74
2023/10/30 06:38:31;;;;;;;4.00;1.60;;;13.90;99.90;;;;;;4966890;28;20193;-74
2023/10/30 06:40:57;;;;;;;5.10;1.38;;;13.90;99.90;;;;;;4958333;28;20197;-74
2023/10/30 06:43:23;;;;;;;3.50;1.05;;;14.00;99.90;;;;;;4952237;28;20175;-75
2023/10/30 06:45:58;;;;;;;4.28;1.40;;;14.00;99.90;;;;;;4973016;28;20196;-76
2023/10/30 06:48:26;;;;;;;6.03;1.60;;;14.00;99.90;;;;;;4964562;28;20186;-76
2023/10/30 06:50:52;;;;;;;2.95;1.60;;;14.00;99.90;;;;;;4966743;28;20267;-74
2023/10/30 06:53:17;;;;;;;2.38;1.23;;;14.00;99.90;;;;;;4975206;28;20220;-75
2023/10/30 06:55:43;;;;;;;3.15;1.50;;;14.00;99.90;;;;;;4962827;29;20326;-73
2023/10/30 06:58:09;;;;;;;2.97;1.50;;;14.00;99.90;;;;;;4962927;28;20192;-73
2023/10/30 07:00:37;;;;;;;3.22;1.50;;;14.10;99.90;;;;;;4955657;29;20233;-72
2023/10/30 07:03:02;;;;;;;2.63;1.50;;;14.00;99.90;;;;;;4955445;29;20209;-72
2023/10/30 07:05:30;;;;;;;2.67;1.58;;;14.10;99.90;;;;;;4957268;28;20274;-72
2023/10/30 07:07:56;;;;;;;4.32;1.58;;;14.10;99.90;;;;;;4962760;28;20184;-72
2023/10/30 07:10:24;;;;;;;4.38;1.70;;;14.10;99.90;;;;;;4958240;28;20191;-73
2023/10/30 07:12:49;;;;;;;2.67;1.70;;;14.10;99.90;;;;;;4984434;28;20299;-72
2023/10/30 07:15:20;;;;;;;2.90;1.73;;;14.10;99.90;;;;;;4972854;28;20276;-72
2023/10/30 07:17:46;;;;;;;3.10;1.50;;;14.10;99.90;;;;;;4948185;28;20204;-71
2023/10/30 07:20:12;;;;;;;2.00;1.30;;;14.20;99.90;;;;;;4966754;28;20514;-72
2023/10/30 07:22:37;;;;;;;2.15;1.58;;;14.20;99.90;;;;;;4958198;28;20207;-72
2023/10/30 07:25:03;;;;;;;2.60;1.50;;;14.20;99.90;;;;;;4956467;29;20203;-66
2023/10/30 07:27:29;;;;;;;4.00;1.48;;;14.20;99.90;;;;;;4955085;28;20205;-68
2023/10/30 07:29:54;;;;;;;3.50;1.60;;;14.20;99.90;;;;;;4970661;28;20180;-66
2023/10/30 07:32:20;;;;;;;3.47;1.40;;;14.20;99.90;;;;;;4952672;28;20215;-68
2023/10/30 07:34:45;;;;;;;4.88;1.60;;;14.20;99.90;;;;;;4966887;28;20251;-69
2023/10/30 07:37:11;;;;;;;4.15;2.40;;;14.20;99.90;;;;;;4954681;28;20211;-68
2023/10/30 07:39:37;;;;;;;5.00;2.00;;;14.20;99.90;;;;;;4953763;28;21393;-68
2023/10/30 07:42:03;;;;;;;3.85;2.00;;;14.30;99.90;;;;;;4956713;28;20184;-68
2023/10/30 07:44:29;;;;;;;3.03;1.73;;;14.30;99.90;;;;;;4949975;28;20272;-67
2023/10/30 07:46:54;;;;;;;5.20;2.30;;;14.30;99.90;;;;;;4962813;28;20208;-68
2023/10/30 07:49:22;;;;;;;2.90;1.70;;;14.30;99.90;;;;;;4967799;28;20204;-70
2023/10/30 07:51:48;;;;;;;2.78;1.70;;;14.30;99.90;;;;;;4968804;28;20272;-68
2023/10/30 07:54:14;;;;;;;4.10;1.70;;;14.40;99.90;;;;;;4967708;28;20216;-69
2023/10/30 07:56:42;;;;;;;2.22;1.58;;;14.30;99.90;;;;;;4955159;28;20275;-69
2023/10/30 07:59:11;;;;;;;2.58;1.40;;;14.40;99.90;;;;;;4968824;28;20187;-68
2023/10/30 08:01:39;;;;;;;4.13;1.38;;;14.40;99.90;;;;;;4953851;28;20228;-68
2023/10/30 08:04:06;;;;;;;2.72;1.75;;;14.40;99.90;;;;;;4972061;28;20196;-68
2023/10/30 08:06:32;;;;;;;2.55;1.52;;;14.40;99.90;;;;;;4958357;28;21380;-68
2023/10/30 08:08:58;;;;;;;2.97;1.42;;;14.50;99.90;;;;;;4966371;28;20243;-65
2023/10/30 08:11:24;;;;;;;2.95;1.50;;;14.50;99.90;;;;;;4967703;28;20220;-67
2023/10/30 08:13:52;;;;;;;2.78;1.35;;;14.50;99.90;;;;;;4952399;28;20196;-67
2023/10/30 08:16:20;;;;;;;2.25;1.55;;;14.50;99.90;;;;;;4973409;28;20236;-66
2023/10/30 08:18:50;;;;;;;2.85;1.50;;;14.60;99.90;;;;;;4955054;28;20180;-67
2023/10/30 08:21:19;;;;;;;2.95;1.52;;;14.60;99.90;;;;;;4954706;29;20205;-67
2023/10/30 08:23:44;;;;;;;3.25;1.60;;;14.60;99.90;;;;;;4957818;28;20189;-67
2023/10/30 08:26:10;;;;;;;1.60;1.10;;;14.70;99.90;;;;;;4960670;28;20176;-67
2023/10/30 08:28:36;;;;;;;2.42;1.40;;;14.70;99.90;;;;;;4947077;28;20204;-67
2023/10/30 08:31:01;;;;;;;3.22;1.60;;;14.80;99.90;;;;;;4967810;28;20191;-67
2023/10/30 08:33:27;;;;;;;3.15;1.45;;;14.80;99.90;;;;;;4956323;28;20271;-67
2023/10/30 08:35:56;;;;;;;2.08;1.40;;;14.90;99.90;;;;;;4951916;28;20204;-67
2023/10/30 08:38:22;;;;;;;2.17;1.30;;;15.00;99.90;;;;;;4962347;28;20406;-67
2023/10/30 08:40:47;;;;;;;2.53;1.20;;;15.00;99.90;;;;;;4960248;28;20259;-68
2023/10/30 08:43:13;;;;;;;1.95;1.38;;;15.10;99.90;;;;;;4951265;28;20338;-66
2023/10/30 08:45:41;;;;;;;3.00;1.48;;;15.20;99.90;;;;;;4964221;28;20191;-67
2023/10/30 08:48:10;;;;;;;2.42;1.30;;;15.20;99.90;;;;;;4958029;28;20191;-68
2023/10/30 08:50:37;;;;;;;2.97;1.35;;;15.30;99.90;;;;;;4953271;28;20276;-68
2023/10/30 08:53:03;;;;;;;3.15;1.88;;;15.30;99.90;;;;;;4958940;28;20215;-67
2023/10/30 08:55:29;;;;;;;2.65;1.52;;;15.50;99.90;;;;;;4970014;28;20283;-67
2023/10/30 08:57:57;;;;;;;3.95;1.63;;;15.60;99.90;;;;;;4972148;28;20180;-68
2023/10/30 09:00:22;;;;;;;1.95;1.30;;;15.70;99.90;;;;;;4962575;28;20201;-68
2023/10/30 09:02:51;;;;;;;3.58;1.40;;;16.10;99.90;;;;;;4965194;28;20188;-68
2023/10/30 09:05:19;;;;;;;1.77;1.20;;;16.50;99.90;;;;;;4955202;29;20177;-68
2023/10/30 09:07:46;;;;;;;2.60;1.50;;;17.00;99.90;;;;;;4959490;28;20176;-68
2023/10/30 09:10:14;;;;;;;2.38;1.23;;;17.30;99.90;;;;;;4976616;28;20168;-68
2023/10/30 09:12:42;;;;;;;2.15;1.27;;;17.60;99.90;;;;;;4964412;28;20209;-69
2023/10/30 09:15:13;;;;;;;1.65;1.20;;;17.90;99.90;;;;;;4956317;29;20203;-68
2023/10/30 09:17:38;;;;;;;1.73;1.10;;;18.30;99.90;;;;;;4956418;29;20217;-68
2023/10/30 09:20:05;;;;;;;2.05;1.20;;;18.60;99.90;;;;;;4969633;28;20184;-67
2023/10/30 09:22:33;;;;;;;1.92;1.25;;;19.00;99.90;;;;;;4953986;28;20192;-68
2023/10/30 09:25:03;;;;;;;1.58;1.25;;;19.30;99.90;;;;;;4953142;28;20284;-68
2023/10/30 09:27:31;;;;;;;2.13;1.10;;;19.50;99.90;;;;;;4962827;28;20190;-67
2023/10/30 09:29:56;;;;;;;2.72;1.35;;;19.70;99.90;;;;;;4966655;28;20185;-68
2023/10/30 09:32:29;;;;;;;1.13;1.00;;;19.80;99.90;;;;;;4963648;28;20209;-68
2023/10/30 09:34:55;;;;;;;2.03;1.10;;;19.70;99.90;;;;;;4953028;29;20253;-68
2023/10/30 09:37:21;;;;;;;1.25;0.90;;;19.50;99.90;;;;;;5106580;23;20262;-68
2023/10/30 09:39:47;;;;;;;2.15;1.10;;;19.30;99.90;;;;;;4991352;28;20175;-68
2023/10/30 09:42:14;;;;;;;2.47;1.35;;;19.00;99.90;;;;;;4987734;28;20235;-68
2023/10/30 09:44:40;;;;;;;1.13;0.90;;;18.80;99.90;;;;;;4991356;28;20200;-68
2023/10/30 09:47:06;;;;;;;1.70;0.90;;;18.70;99.90;;;;;;4992188;28;20172;-68
2023/10/30 09:49:36;;;;;;;1.60;0.90;;;18.60;99.90;;;;;;4992315;28;20221;-68
2023/10/30 09:52:05;;;;;;;3.40;1.05;;;18.50;99.90;;;;;;4986581;28;20180;-68
2023/10/30 09:54:32;;;;;;;2.25;1.10;;;18.40;99.90;;;;;;4991234;28;20207;-68
2023/10/30 09:57:00;;;;;;;1.88;0.80;;;18.40;99.90;;;;;;4987990;28;20196;-68
2023/10/30 09:59:32;;;;;;;1.67;0.88;;;18.40;99.90;;;;;;4988508;28;20191;-66
2023/10/30 10:02:01;;;;;;;1.00;0.70;;;18.40;99.90;;;;;;4989672;28;20189;-67
2023/10/30 10:04:27;;;;;;;1.60;0.88;;;18.30;99.90;;;;;;4989877;28;20176;-70
2023/10/30 10:06:54;;;;;;;1.20;0.70;;;18.30;99.90;;;;;;4996028;28;20222;-68
2023/10/30 10:09:22;;;;;;;1.10;0.75;;;18.30;99.90;;;;;;4992600;28;20246;-68
2023/10/30 10:11:47;;;;;;;1.20;0.68;;;18.40;99.90;;;;;;4993464;28;20314;-68
2023/10/30 10:14:16;;;;;;;1.45;0.80;;;18.50;99.90;;;;;;4994980;28;20255;-69
2023/10/30 10:16:44;;;;;;;2.63;1.23;;;18.60;99.90;;;;;;4995913;28;20199;-68
2023/10/30 10:19:20;;;;;;;2.20;1.10;;;18.60;99.90;;;;;;4995175;28;20207;-69
2023/10/30 10:21:49;;;;;;;1.05;0.80;;;18.60;99.90;;;;;;4988520;28;20179;-68
2023/10/30 10:24:26;;;;;;;1.33;0.80;;;18.60;99.90;;;;;;4993411;28;20203;-69
2023/10/30 10:26:52;;;;;;;2.13;1.10;;;18.70;99.90;;;;;;4990148;28;20207;-69
2023/10/30 10:29:23;;;;;;;1.33;0.90;;;18.80;99.90;;;;;;4992778;28;20171;-67
2023/10/30 10:31:51;;;;;;;1.40;0.85;;;18.90;99.90;;;;;;4993346;28;20234;-68
2023/10/30 10:34:17;;;;;;;1.20;0.75;;;19.00;99.90;;;;;;4993010;28;20206;-68
2023/10/30 10:36:42;;;;;;;1.25;0.90;;;19.10;99.90;;;;;;4989613;28;20194;-68
2023/10/30 10:39:10;;;;;;;1.25;0.80;;;19.30;99.90;;;;;;4994328;28;20191;-68
2023/10/30 10:41:41;;;;;;;2.72;0.60;;;19.30;99.90;;;;;;4993040;28;20172;-68
2023/10/30 10:44:11;;;;;;;2.35;0.75;;;19.30;99.90;;;;;;4985480;28;20290;-69
2023/10/30 10:46:42;;;;;;;1.10;0.70;;;19.30;99.90;;;;;;4993562;28;20246;-66
2023/10/30 10:49:07;;;;;;;0.80;0.60;;;19.40;99.90;;;;;;4989488;28;20180;-68
2023/10/30 10:51:38;;;;;;;1.30;0.50;;;19.40;99.90;;;;;;4977667;28;20207;-68
2023/10/30 10:54:17;;;;;;;1.67;0.50;;;19.40;99.90;;;;;;4986534;28;20365;-68
2023/10/30 10:56:52;;;;;;;0.60;0.50;;;19.30;99.90;;;;;;4996315;28;20175;-68
2023/10/30 10:59:21;;;;;;;2.08;0.60;;;19.20;99.90;;;;;;4997284;28;20175;-67
2023/10/30 11:01:53;;;;;;;0.77;0.45;;;19.10;99.90;;;;;;4997115;28;20199;-67
2023/10/30 11:04:19;;;;;;;0.50;0.30;;;19.00;99.90;;;;;;4995718;28;20238;-68
2023/10/30 11:06:50;;;;;;;0.95;0.50;;;18.80;99.90;;;;;;4977767;28;20172;-68
2023/10/30 11:09:24;;;;;;;0.70;0.52;;;18.70;99.90;;;;;;4986548;28;20203;-68
2023/10/30 11:12:04;;;;;;;1.23;0.70;;;18.50;99.90;;;;;;4996168;28;20186;-68
2023/10/30 11:14:48;;;;;;;1.95;0.70;;;18.40;99.90;;;;;;4996420;28;20183;-68
2023/10/30 11:17:14;;;;;;;1.80;0.90;;;18.20;99.90;;;;;;4996975;28;20187;-67
2023/10/30 11:19:42;;;;;;;1.13;0.75;;;18.10;99.90;;;;;;4996920;28;20210;-68
2023/10/30 11:22:07;;;;;;;3.83;0.60;;;18.00;99.90;;;;;;4996307;28;20203;-68
2023/10/30 11:24:43;;;;;;;1.98;0.70;;;17.90;99.90;;;;;;4996386;28;20183;-68
2023/10/30 11:27:27;;;;;;;0.82;0.50;;;17.90;99.90;;;;;;4996465;28;20230;-68
2023/10/30 11:30:01;;;;;;;0.98;0.70;;;17.90;99.90;;;;;;4984984;28;20223;-68
2023/10/30 11:32:32;;;;;;;3.35;0.77;;;17.80;99.90;;;;;;4990109;28;20179;-67
2023/10/30 11:34:59;;;;;;;0.63;0.45;;;17.80;99.90;;;;;;4977850;28;20204;-68
2023/10/30 11:37:32;;;;;;;0.73;0.45;;;17.80;99.90;;;;;;4993623;28;20294;-68
2023/10/30 11:40:02;;;;;;;0.43;0.40;;;17.70;99.90;;;;;;4988570;28;20207;-68
2023/10/30 11:42:28;;;;;;;0.90;0.45;;;17.70;99.90;;;;;;4990931;28;20237;-67
2023/10/30 11:45:24;;;;;;;1.02;0.50;;;17.70;99.90;;;;;;4989660;28;20179;-67
2023/10/30 11:48:02;;;;;;;0.85;0.50;;;17.70;99.90;;;;;;4989962;28;20189;-67
2023/10/30 11:50:39;;;;;;;0.68;0.40;;;17.70;99.90;;;;;;4992477;28;20399;-67
2023/10/30 11:53:09;;;;;;;0.90;0.60;;;17.70;99.90;;;;;;5004722;28;20217;-67
2023/10/30 11:55:37;;;;;;;1.08;0.70;;;17.70;99.90;;;;;;4993957;28;20233;-67
2023/10/30 11:58:05;;;;;;;1.23;0.52;;;17.70;99.90;;;;;;4992929;28;20233;-65
2023/10/30 12:00:31;;;;;;;0.70;0.60;;;17.70;99.90;;;;;;4987324;28;20250;-67
2023/10/30 12:02:59;;;;;;;1.10;0.60;;;17.70;99.90;;;;;;5007306;28;20188;-68
2023/10/30 12:05:28;;;;;;;0.50;0.38;;;17.70;99.90;;;;;;4992040;28;20187;-68
2023/10/30 12:07:56;;;;;;;0.40;0.40;;;17.70;99.90;;;;;;4990688;28;20187;-67
2023/10/30 12:10:22;;;;;;;0.70;0.50;;;17.70;99.90;;;;;;4993932;28;20200;-67
2023/10/30 12:12:48;;;;;;;0.70;0.50;;;17.70;99.90;;;;;;4992087;28;20179;-67
2023/10/30 12:15:16;;;;;;;1.90;0.40;;;17.70;99.90;;;;;;4993612;28;20207;-68
2023/10/30 12:17:46;;;;;;;1.15;0.60;;;17.70;99.90;;;;;;4992183;28;20180;-67
2023/10/30 12:20:11;;;;;;;1.15;0.70;;;17.70;99.90;;;;;;4991609;28;20179;-68
2023/10/30 12:22:41;;;;;;;1.77;0.40;;;17.70;99.90;;;;;;5004684;28;20210;-67
2023/10/30 12:25:09;;;;;;;0.60;0.50;;;17.70;99.90;;;;;;4986824;28;20187;-68
2023/10/30 12:27:36;;;;;;;1.45;0.60;;;17.70;99.90;;;;;;4985536;28;20184;-66
2023/10/30 12:30:21;;;;;;;0.85;0.50;;;17.60;99.90;;;;;;5002008;28;20222;-68
2023/10/30 12:32:57;;;;;;;0.70;0.40;;;17.60;99.90;;;;;;4989513;28;20193;-67
2023/10/30 12:35:22;;;;;;;0.40;0.40;;;17.60;99.90;;;;;;4988459;28;20229;-68
2023/10/30 12:37:48;;;;;;;2.13;0.30;;;17.60;99.90;;;;;;4990223;28;20262;-68
2023/10/30 12:40:14;;;;;;;1.83;0.40;;;17.60;99.90;;;;;;4990610;28;20186;-68
2023/10/30 12:42:44;;;;;;;0.80;0.55;;;17.60;99.90;;;;;;4989886;28;20182;-68
2023/10/30 12:45:15;;;;;;;0.95;0.50;;;17.60;99.90;;;;;;4995443;28;20183;-68
2023/10/30 12:47:48;;;;;;;0.47;0.45;;;17.60;99.90;;;;;;4992564;28;20179;-69
2023/10/30 12:50:15;;;;;;;0.30;0.20;;;17.60;99.90;;;;;;4991614;28;20183;-68